Terminal Aerodrome Forecast
Issued by NWS

Current Version | Previous Version | Graphics & Text | Print | Product List | Glossary On
Versions: 1 2 3 4 5 6 7 8 9 10 11 12 13 14 15 16 17 18 19 20 21 22
000
FTUS41 KRLX 051600 AAC
TAFCKB
TAF AMD
KCKB 051610Z 0516/0612 33006KT 1SM -SN BR OVC004
      TEMPO 0516/0518 1/2SM SN FG OVC003
     FM051800 36006KT 2SM -SN BR OVC008
     FM052000 34005KT 4SM -SN BR OVC010
     FM052200 34005KT P6SM BKN025
     FM060300 33003KT P6SM SCT030=

USA.gov is the U.S. government's official web portal to all federal, state and local government web resources and services.